CheckWX is a tool to help pilots better visualize weather data.  It is not intended as a substitute for an official pre-flight weather briefing.

09:22:05 UTC

KEQA METAR
El Dorado / Captain Jack Thomas Memorial Airport
El Dorado, Kansas, USA
Current

27 mins ago

KEQA 210855Z AUTO 17012G15KT 10SM BKN011 22/20 A2993 RMK AO2
Observed
Sep-21 @ 08:55 UTC
Wind
  • 170° at 12 KTS
  • Gusting to 15 KTS
Visibility
10 SM
Flight Rules
MVFR
Cloud Levels
  • Broken at 1,100' AGL
Temperature
22°C / 72°F
Dewpoint
20°C / 68°F
Humidity
88%
Altimeter
29.93" Hg
Pressure
1013.52 hPa
Previous

47 mins ago

KEQA 210835Z AUTO 17013KT 10SM OVC011 22/20 A2993 RMK AO2
Observed
Sep-21 @ 08:35 UTC
Wind
  • 170° at 13 KTS
Visibility
10 SM
Flight Rules
MVFR
Cloud Levels
  • Overcast at 1,100' AGL
Temperature
22°C / 72°F
Dewpoint
20°C / 68°F
Humidity
88%
Altimeter
29.93" Hg
Pressure
1013.52 hPa
Previous

1 hour ago

KEQA 210815Z AUTO 17011G15KT 10SM OVC011 22/20 A2994 RMK AO2
Observed
Sep-21 @ 08:15 UTC
Wind
  • 170° at 11 KTS
  • Gusting to 15 KTS
Visibility
10 SM
Flight Rules
MVFR
Cloud Levels
  • Overcast at 1,100' AGL
Temperature
22°C / 72°F
Dewpoint
20°C / 68°F
Humidity
88%
Altimeter
29.94" Hg
Pressure
1013.92 hPa